Time;durP1;ratioP1;P1;durP2;ratioP2;P2;SDS_P1;SDS_P2;PMS_P1;PMS_P2;Temp;Humidity;BMP_temperature;BMP_pressure;BME280_temperature;BME280_humidity;BME280_pressure;Samples;Min_cycle;Max_cycle;Signal;HPM_P1;HPM_P2
2022/10/20 00:00:57;;;;;;;13.73;7.20;;;8.30;99.90;;;;;;5032246;28;20402;-83
2022/10/20 00:03:24;;;;;;;14.48;6.53;;;8.20;99.90;;;;;;5048681;28;20041;-83
2022/10/20 00:05:50;;;;;;;16.25;8.18;;;8.50;99.90;;;;;;5014203;28;20076;-82
2022/10/20 00:08:16;;;;;;;11.23;7.07;;;8.30;99.90;;;;;;5016786;28;20164;-83
2022/10/20 00:10:42;;;;;;;11.40;7.00;;;8.10;99.90;;;;;;5032388;28;20082;-83
2022/10/20 00:13:08;;;;;;;14.52;7.40;;;8.10;99.90;;;;;;5048255;28;20068;-82
2022/10/20 00:15:34;;;;;;;12.88;7.35;;;8.00;99.90;;;;;;5015288;28;20079;-83
2022/10/20 00:17:59;;;;;;;14.63;7.40;;;8.00;99.90;;;;;;4999740;28;20432;-83
2022/10/20 00:20:25;;;;;;;10.52;7.32;;;8.10;99.90;;;;;;5030472;28;20098;-82
2022/10/20 00:22:50;;;;;;;13.90;7.13;;;8.00;99.90;;;;;;5033706;28;20060;-84
2022/10/20 00:25:16;;;;;;;14.38;7.18;;;8.00;99.90;;;;;;4995155;28;20037;-83
2022/10/20 00:27:42;;;;;;;17.13;7.22;;;7.90;99.90;;;;;;5039817;28;20122;-83
2022/10/20 00:30:08;;;;;;;10.07;7.15;;;7.90;99.90;;;;;;5033240;28;20041;-82
2022/10/20 00:32:33;;;;;;;13.60;7.07;;;7.90;99.90;;;;;;5035650;28;20036;-83
2022/10/20 00:34:59;;;;;;;16.73;7.32;;;7.90;99.90;;;;;;5045193;28;20118;-82
2022/10/20 00:37:25;;;;;;;11.63;7.20;;;7.90;99.90;;;;;;5015786;28;20067;-82
2022/10/20 00:39:50;;;;;;;13.60;7.03;;;7.80;99.90;;;;;;5025719;28;20041;-83
2022/10/20 00:42:17;;;;;;;12.68;7.03;;;8.40;99.90;;;;;;5046011;28;20063;-81
2022/10/20 00:44:50;;;;;;;13.15;7.25;;;7.80;99.90;;;;;;5033794;28;20110;-83
2022/10/20 00:47:38;;;;;;;12.53;7.30;;;7.80;99.90;;;;;;5036765;28;20036;-80
2022/10/20 00:50:12;;;;;;;15.13;6.97;;;7.80;99.90;;;;;;5029271;28;20303;-81
2022/10/20 00:52:38;;;;;;;11.35;7.32;;;7.80;99.90;;;;;;5028310;28;20040;-82
2022/10/20 00:55:07;;;;;;;13.50;6.85;;;8.70;99.90;;;;;;5012716;28;20045;-83
2022/10/20 00:57:33;;;;;;;12.73;7.35;;;7.70;99.90;;;;;;5030141;28;20041;-80
2022/10/20 00:59:58;;;;;;;15.07;7.28;;;7.70;99.90;;;;;;5017228;28;20040;-83
2022/10/20 01:02:24;;;;;;;11.27;7.50;;;7.70;99.90;;;;;;5009468;28;20055;-82
2022/10/20 01:04:50;;;;;;;13.70;7.25;;;7.70;99.90;;;;;;5043986;28;20043;-83
2022/10/20 01:07:16;;;;;;;12.40;7.00;;;8.00;99.90;;;;;;5050114;28;20101;-83
2022/10/20 01:09:42;;;;;;;12.57;6.43;;;7.60;99.90;;;;;;5025661;28;20044;-81
2022/10/20 01:12:37;;;;;;;11.68;7.20;;;7.60;99.90;;;;;;5030688;28;20053;-82
2022/10/20 01:15:26;;;;;;;12.57;7.20;;;7.60;99.90;;;;;;5053465;28;20517;-82
2022/10/20 01:18:25;;;;;;;11.10;6.32;;;7.60;99.90;;;;;;5031210;28;20089;-80
2022/10/20 01:21:03;;;;;;;12.60;7.10;;;7.60;99.90;;;;;;5040056;28;20049;-81
2022/10/20 01:23:44;;;;;;;13.38;7.15;;;7.50;99.90;;;;;;5042568;28;20044;-82
2022/10/20 01:26:18;;;;;;;10.88;6.25;;;7.50;99.90;;;;;;5044438;28;20451;-82
2022/10/20 01:28:47;;;;;;;8.05;5.85;;;7.50;99.90;;;;;;5046358;28;20053;-83
2022/10/20 01:31:21;;;;;;;11.70;6.75;;;7.50;99.90;;;;;;5024514;28;20117;-83
2022/10/20 01:33:53;;;;;;;;;;;7.60;99.90;;;;;;5023064;28;20037;-81
2022/10/20 01:36:38;;;;;;;10.20;6.00;;;7.40;99.90;;;;;;5046253;28;19920;-82
2022/10/20 01:39:19;;;;;;;12.13;6.18;;;7.40;99.90;;;;;;5045011;28;20094;-82
2022/10/20 01:41:51;;;;;;;15.10;6.70;;;7.40;99.90;;;;;;5026483;28;20041;-82
2022/10/20 01:44:20;;;;;;;11.23;7.05;;;7.70;99.90;;;;;;5024562;28;20041;-82
2022/10/20 01:46:46;;;;;;;17.17;6.70;;;8.10;99.90;;;;;;5044811;28;20477;-82
2022/10/20 01:49:14;;;;;;;12.60;7.22;;;7.40;99.90;;;;;;5051326;28;20047;-82
2022/10/20 01:51:40;;;;;;;12.18;6.45;;;7.90;99.90;;;;;;5043704;28;20060;-82
2022/10/20 01:54:06;;;;;;;11.38;7.25;;;7.30;99.90;;;;;;5049323;28;20033;-82
2022/10/20 01:56:41;;;;;;;9.55;6.53;;;7.30;99.90;;;;;;5015659;28;20040;-81
2022/10/20 01:59:33;;;;;;;12.45;6.43;;;7.30;99.90;;;;;;5026243;28;20785;-83
2022/10/20 02:02:40;;;;;;;12.52;7.03;;;7.30;99.90;;;;;;4986491;28;20126;-82
2022/10/20 02:05:37;;;;;;;13.50;6.25;;;7.30;99.90;;;;;;5031955;28;20463;-82
2022/10/20 02:08:21;;;;;;;13.25;6.55;;;7.30;99.90;;;;;;5028040;28;20045;-83
2022/10/20 02:10:51;;;;;;;11.60;7.38;;;7.20;99.90;;;;;;5024087;28;20033;-83
2022/10/20 02:13:20;;;;;;;9.52;6.13;;;7.30;99.90;;;;;;5027072;28;20024;-83
2022/10/20 02:15:50;;;;;;;12.00;5.97;;;7.20;99.90;;;;;;5045306;28;20058;-83
2022/10/20 02:18:21;;;;;;;15.00;7.32;;;7.20;99.90;;;;;;5041514;28;20442;-81
2022/10/20 02:20:51;;;;;;;12.27;7.28;;;7.20;99.90;;;;;;5047365;28;20033;-82
2022/10/20 02:23:17;;;;;;;14.70;6.85;;;7.20;99.90;;;;;;5033045;28;20131;-82
2022/10/20 02:25:45;;;;;;;16.17;6.93;;;7.20;99.90;;;;;;5051894;22;20198;-82
2022/10/20 02:28:13;;;;;;;10.65;6.13;;;7.20;99.90;;;;;;5057177;28;20051;-83
2022/10/20 02:30:39;;;;;;;9.88;5.82;;;7.60;99.90;;;;;;5058517;28;20047;-83
2022/10/20 02:33:06;;;;;;;12.48;6.85;;;7.10;99.90;;;;;;5044243;28;20047;-83
2022/10/20 02:35:33;;;;;;;12.05;6.40;;;7.60;99.90;;;;;;5022244;28;20502;-83
2022/10/20 02:38:00;;;;;;;13.60;6.68;;;7.20;99.90;;;;;;5045017;28;20049;-83
2022/10/20 02:40:26;;;;;;;11.20;5.97;;;7.20;99.90;;;;;;5036568;28;20516;-84
2022/10/20 02:42:52;;;;;;;9.65;6.38;;;7.90;99.90;;;;;;5046855;28;20050;-81
2022/10/20 02:45:18;;;;;;;11.95;6.57;;;7.10;99.90;;;;;;5037455;28;20119;-83
2022/10/20 02:47:44;;;;;;;10.73;6.40;;;7.10;99.90;;;;;;5034120;28;20049;-83
2022/10/20 02:50:10;;;;;;;14.43;6.88;;;7.10;99.90;;;;;;5034095;28;20058;-83
2022/10/20 02:52:36;;;;;;;11.75;7.05;;;7.10;99.90;;;;;;5035122;28;20562;-83
2022/10/20 02:55:03;;;;;;;10.88;7.05;;;7.00;99.90;;;;;;5035518;28;20097;-83
2022/10/20 02:57:29;;;;;;;13.85;6.13;;;7.10;99.90;;;;;;5060694;28;20097;-83
2022/10/20 02:59:55;;;;;;;13.23;6.95;;;7.50;99.90;;;;;;5006649;28;22871;-81
2022/10/20 03:02:20;;;;;;;13.25;7.05;;;7.00;99.90;;;;;;5045477;28;20040;-80
2022/10/20 03:04:46;;;;;;;14.07;6.47;;;7.10;99.90;;;;;;5037043;28;20032;-83
2022/10/20 03:07:13;;;;;;;7.85;6.10;;;7.10;99.90;;;;;;5055512;28;20497;-83
2022/10/20 03:09:38;;;;;;;13.30;7.20;;;7.30;99.90;;;;;;5055771;28;20074;-81
2022/10/20 03:12:04;;;;;;;18.63;7.05;;;7.00;99.90;;;;;;5050326;28;20397;-83
2022/10/20 03:14:30;;;;;;;10.10;6.65;;;7.00;99.90;;;;;;5042221;28;20062;-84
2022/10/20 03:16:56;;;;;;;9.95;6.93;;;7.00;99.90;;;;;;5034681;28;20100;-83
2022/10/20 03:19:21;;;;;;;12.40;5.90;;;7.00;99.90;;;;;;5015838;28;20039;-84
2022/10/20 03:21:48;;;;;;;9.93;6.50;;;7.30;99.90;;;;;;5008787;28;20182;-83
2022/10/20 03:24:14;;;;;;;9.45;6.65;;;7.00;99.90;;;;;;5027395;28;20561;-83
2022/10/20 03:26:40;;;;;;;11.75;7.03;;;6.90;99.90;;;;;;5009597;28;20036;-83
2022/10/20 03:29:06;;;;;;;12.43;6.25;;;6.90;99.90;;;;;;5040458;28;22423;-80
2022/10/20 03:31:32;;;;;;;16.42;7.15;;;6.90;99.90;;;;;;5054871;28;20096;-83
2022/10/20 03:33:57;;;;;;;10.45;6.90;;;6.90;99.90;;;;;;5022619;28;20040;-83
2022/10/20 03:36:23;;;;;;;14.13;7.10;;;6.90;99.90;;;;;;5027811;28;20070;-83
2022/10/20 03:38:49;;;;;;;14.10;7.28;;;7.00;99.90;;;;;;5009984;28;20047;-84
2022/10/20 03:41:14;;;;;;;12.88;7.47;;;7.50;99.90;;;;;;5040748;28;20069;-83
2022/10/20 03:43:40;;;;;;;12.30;7.00;;;7.20;99.90;;;;;;5028569;28;20099;-82
2022/10/20 03:46:09;;;;;;;13.52;7.22;;;6.90;99.90;;;;;;5033871;28;20049;-83
2022/10/20 03:48:35;;;;;;;10.40;6.82;;;7.00;99.90;;;;;;5061190;28;20412;-82
2022/10/20 03:51:01;;;;;;;12.85;7.18;;;6.90;99.90;;;;;;5036105;28;20071;-83
2022/10/20 03:53:27;;;;;;;11.95;7.38;;;6.90;99.90;;;;;;5056103;28;20040;-83
2022/10/20 03:55:53;;;;;;;11.27;7.50;;;6.90;99.90;;;;;;5032583;28;20040;-83
2022/10/20 03:58:19;;;;;;;16.13;7.90;;;6.90;99.90;;;;;;5037053;28;20048;-83
2022/10/20 04:00:45;;;;;;;14.75;7.82;;;7.40;99.90;;;;;;5043503;28;20063;-88
2022/10/20 04:03:11;;;;;;;12.82;7.97;;;7.00;99.90;;;;;;5072443;28;20044;-86
2022/10/20 04:05:37;;;;;;;10.00;6.82;;;6.90;99.90;;;;;;5049644;28;20067;-85
2022/10/20 04:08:03;;;;;;;16.02;8.50;;;7.00;99.90;;;;;;5041583;28;20052;-85
2022/10/20 04:10:29;;;;;;;15.70;9.43;;;7.00;99.90;;;;;;5044768;28;20045;-84
2022/10/20 04:13:02;;;;;;;20.52;11.05;;;7.50;99.90;;;;;;5042056;28;20036;-82
2022/10/20 04:15:27;;;;;;;12.88;8.50;;;6.90;99.90;;;;;;5055415;28;20040;-83
2022/10/20 04:17:53;;;;;;;15.60;8.88;;;6.90;99.90;;;;;;5024999;28;20119;-81
2022/10/20 04:20:19;;;;;;;13.55;9.68;;;6.90;99.90;;;;;;5028649;28;20059;-83
2022/10/20 04:22:45;;;;;;;11.82;8.85;;;7.90;99.90;;;;;;5023751;28;20044;-83
2022/10/20 04:25:11;;;;;;;13.23;7.82;;;7.00;99.90;;;;;;5037325;28;20037;-82
2022/10/20 04:27:40;;;;;;;14.27;9.55;;;6.90;99.90;;;;;;5045274;28;20385;-82
2022/10/20 04:30:08;;;;;;;22.40;11.98;;;7.00;99.90;;;;;;5039017;28;20124;-82
2022/10/20 04:32:33;;;;;;;15.23;9.38;;;6.90;99.90;;;;;;5052124;28;20033;-83
2022/10/20 04:34:59;;;;;;;20.30;11.40;;;7.30;99.90;;;;;;5041512;28;20070;-83
2022/10/20 04:37:25;;;;;;;25.55;15.15;;;6.90;99.90;;;;;;5035694;28;20036;-83
2022/10/20 04:39:51;;;;;;;21.13;10.82;;;7.90;99.90;;;;;;5034627;28;20250;-83
2022/10/20 04:42:17;;;;;;;14.05;10.07;;;6.90;99.90;;;;;;5052870;28;20036;-83
2022/10/20 04:44:43;;;;;;;13.82;9.75;;;7.30;99.90;;;;;;5019705;28;20051;-82
2022/10/20 04:47:09;;;;;;;17.17;9.50;;;6.80;99.90;;;;;;5057638;28;20056;-83
2022/10/20 04:49:35;;;;;;;13.73;9.35;;;7.60;99.90;;;;;;5034271;28;20044;-83
2022/10/20 04:52:01;;;;;;;15.52;10.07;;;6.80;99.90;;;;;;5059803;28;20470;-83
2022/10/20 04:54:27;;;;;;;16.13;9.52;;;7.70;99.90;;;;;;5018581;28;20040;-83
2022/10/20 04:56:53;;;;;;;20.38;13.70;;;6.80;99.90;;;;;;5067397;28;20045;-80
2022/10/20 04:59:19;;;;;;;15.25;9.40;;;7.20;99.90;;;;;;5018221;28;20070;-83
2022/10/20 05:01:44;;;;;;;15.00;10.15;;;7.50;99.90;;;;;;5057310;28;20033;-82
2022/10/20 05:04:10;;;;;;;15.10;9.68;;;6.80;99.90;;;;;;5052680;28;20136;-83
2022/10/20 05:06:36;;;;;;;17.27;10.65;;;6.80;99.90;;;;;;5058116;28;20037;-83
2022/10/20 05:09:05;;;;;;;17.08;11.48;;;6.80;99.90;;;;;;5043773;28;20070;-82
2022/10/20 05:11:34;;;;;;;23.95;12.10;;;6.80;99.90;;;;;;5038234;28;20044;-82
2022/10/20 05:14:00;;;;;;;16.85;11.80;;;7.50;99.90;;;;;;5030624;28;20064;-85
2022/10/20 05:16:26;;;;;;;18.42;11.10;;;6.80;99.90;;;;;;5041585;28;20051;-82
2022/10/20 05:18:53;;;;;;;17.88;11.85;;;6.70;99.90;;;;;;5038256;28;20052;-82
2022/10/20 05:21:25;;;;;;;18.52;11.75;;;6.80;99.90;;;;;;5042240;28;20048;-83
2022/10/20 05:24:02;;;;;;;20.98;11.70;;;6.70;99.90;;;;;;5044963;28;20047;-81
2022/10/20 05:26:33;;;;;;;16.73;10.35;;;6.70;99.90;;;;;;5062721;28;20044;-82
2022/10/20 05:28:59;;;;;;;15.45;10.30;;;6.70;99.90;;;;;;5038176;28;20044;-83
2022/10/20 05:31:25;;;;;;;17.17;11.40;;;6.80;99.90;;;;;;5038327;28;20075;-84
2022/10/20 05:33:53;;;;;;;16.67;11.45;;;6.70;99.90;;;;;;5005804;28;20111;-81
2022/10/20 05:36:24;;;;;;;18.83;12.32;;;6.70;99.90;;;;;;5052949;28;20044;-84
2022/10/20 05:38:52;;;;;;;21.05;12.90;;;6.80;99.90;;;;;;5052432;28;20037;-84
2022/10/20 05:41:24;;;;;;;16.40;11.55;;;6.70;99.90;;;;;;5048431;28;20066;-83
2022/10/20 05:43:51;;;;;;;15.82;11.35;;;6.60;99.90;;;;;;5047097;28;20040;-82
2022/10/20 05:46:18;;;;;;;20.83;13.40;;;6.60;99.90;;;;;;5048621;28;20036;-83
2022/10/20 05:48:45;;;;;;;18.75;12.90;;;7.60;99.90;;;;;;5047837;28;20059;-82
2022/10/20 05:51:19;;;;;;;18.23;12.15;;;6.70;99.90;;;;;;5034147;28;20040;-80
2022/10/20 05:53:48;;;;;;;19.90;11.98;;;6.60;99.90;;;;;;5032031;28;20177;-82
2022/10/20 05:56:16;;;;;;;23.02;12.60;;;6.60;99.90;;;;;;5030552;28;20171;-82
2022/10/20 05:58:43;;;;;;;18.08;13.20;;;7.10;99.90;;;;;;5042636;28;20546;-83
2022/10/20 06:01:20;;;;;;;18.92;11.95;;;6.60;99.90;;;;;;5032191;28;20532;-82
2022/10/20 06:03:50;;;;;;;21.55;12.52;;;6.80;99.90;;;;;;5046160;28;20040;-82
2022/10/20 06:06:16;;;;;;;21.92;13.85;;;6.60;99.90;;;;;;5034293;28;20062;-82
2022/10/20 06:08:42;;;;;;;24.15;13.18;;;6.70;99.90;;;;;;5039571;28;20037;-83
2022/10/20 06:11:10;;;;;;;18.42;12.60;;;7.00;99.90;;;;;;5039371;28;20109;-82
2022/10/20 06:13:36;;;;;;;23.85;14.43;;;7.20;99.90;;;;;;5058539;28;20037;-85
2022/10/20 06:16:10;;;;;;;19.83;13.63;;;6.70;99.90;;;;;;5055065;28;20036;-85
2022/10/20 06:18:39;;;;;;;21.20;13.25;;;6.70;99.90;;;;;;5050250;28;20147;-83
2022/10/20 06:21:08;;;;;;;19.25;13.23;;;6.80;99.90;;;;;;5018335;28;20037;-83
2022/10/20 06:23:34;;;;;;;20.60;12.73;;;6.80;99.90;;;;;;5054820;28;20049;-83
2022/10/20 06:26:05;;;;;;;19.77;14.50;;;6.70;99.90;;;;;;5039926;28;20043;-82
2022/10/20 06:28:32;;;;;;;18.05;13.10;;;6.80;99.90;;;;;;5043883;28;20044;-83
2022/10/20 06:30:59;;;;;;;18.25;13.48;;;6.90;99.90;;;;;;5058848;28;20039;-83
2022/10/20 06:33:28;;;;;;;20.30;13.52;;;6.80;99.90;;;;;;5058477;28;20052;-81
2022/10/20 06:35:59;;;;;;;21.90;14.40;;;7.70;99.90;;;;;;5045433;28;20051;-82
2022/10/20 06:38:25;;;;;;;22.83;15.45;;;7.40;99.90;;;;;;5047208;28;20040;-82
2022/10/20 06:40:50;;;;;;;20.23;14.80;;;6.90;99.90;;;;;;5027342;28;20123;-83
2022/10/20 06:43:16;;;;;;;21.25;14.57;;;6.90;99.90;;;;;;5007474;28;20088;-82
2022/10/20 06:45:41;;;;;;;22.65;13.68;;;6.90;99.90;;;;;;5018108;28;20044;-83
2022/10/20 06:48:07;;;;;;;20.83;13.75;;;7.10;99.90;;;;;;5040922;28;20044;-83
2022/10/20 06:50:33;;;;;;;20.98;14.23;;;6.90;99.90;;;;;;5037235;28;20043;-83
2022/10/20 06:52:59;;;;;;;19.63;14.48;;;8.00;99.90;;;;;;5046916;28;20132;-82
2022/10/20 06:55:25;;;;;;;21.83;14.30;;;7.80;99.90;;;;;;5028257;28;20063;-82
2022/10/20 06:57:53;;;;;;;18.50;13.85;;;7.40;99.90;;;;;;5015785;28;20037;-83
2022/10/20 07:00:19;;;;;;;17.73;14.30;;;7.30;99.90;;;;;;5034604;28;20104;-80
2022/10/20 07:02:45;;;;;;;22.00;14.13;;;7.00;99.90;;;;;;5063971;28;20040;-83
2022/10/20 07:05:10;;;;;;;17.95;13.45;;;7.00;99.90;;;;;;5047996;28;20111;-83
2022/10/20 07:07:36;;;;;;;18.75;14.05;;;7.10;99.90;;;;;;5028324;28;20086;-84
2022/10/20 07:10:02;;;;;;;21.27;14.63;;;7.60;99.90;;;;;;5056993;28;20511;-84
2022/10/20 07:12:28;;;;;;;19.67;13.30;;;7.10;99.90;;;;;;5063004;28;20044;-83
2022/10/20 07:14:53;;;;;;;19.35;15.10;;;7.20;99.90;;;;;;5064637;28;20040;-83
2022/10/20 07:17:19;;;;;;;22.75;14.10;;;7.40;99.90;;;;;;5070006;28;20090;-83
2022/10/20 07:19:45;;;;;;;20.27;14.63;;;7.20;99.90;;;;;;5023129;28;20041;-83
2022/10/20 07:22:10;;;;;;;18.80;13.55;;;7.80;99.90;;;;;;5037133;28;20515;-82
2022/10/20 07:24:36;;;;;;;18.25;15.02;;;7.30;99.90;;;;;;5021525;28;20133;-84
2022/10/20 07:27:01;;;;;;;21.75;14.68;;;7.30;99.90;;;;;;5010264;28;20036;-80
2022/10/20 07:29:27;;;;;;;18.75;13.45;;;7.30;99.90;;;;;;5049348;28;20044;-83
2022/10/20 07:31:53;;;;;;;21.20;14.80;;;7.60;99.90;;;;;;5029505;28;20040;-80
2022/10/20 07:34:22;;;;;;;22.40;14.00;;;7.40;99.90;;;;;;5036186;28;20047;-82
2022/10/20 07:36:48;;;;;;;21.38;14.80;;;7.50;99.90;;;;;;5038389;28;20040;-83
2022/10/20 07:39:14;;;;;;;20.73;14.32;;;7.40;99.90;;;;;;5048180;28;20060;-83
2022/10/20 07:41:42;;;;;;;21.02;13.90;;;7.50;99.90;;;;;;5041117;28;20029;-83
2022/10/20 07:44:08;;;;;;;19.35;14.45;;;7.50;99.90;;;;;;5035352;28;20047;-83
2022/10/20 07:46:35;;;;;;;22.27;15.82;;;7.60;99.90;;;;;;5031172;28;20036;-82
2022/10/20 07:49:00;;;;;;;19.50;13.00;;;7.80;99.90;;;;;;5018224;28;20051;-84
2022/10/20 07:51:29;;;;;;;19.52;14.13;;;8.00;99.90;;;;;;5018622;28;20036;-82
2022/10/20 07:54:01;;;;;;;24.77;15.00;;;7.60;99.90;;;;;;5028837;28;20056;-83
2022/10/20 07:56:32;;;;;;;18.13;14.75;;;8.00;99.90;;;;;;5049118;28;20040;-83
2022/10/20 07:58:58;;;;;;;18.17;13.35;;;7.70;99.90;;;;;;5030702;28;20112;-83
2022/10/20 08:01:24;;;;;;;21.98;14.80;;;7.80;99.90;;;;;;5033343;28;20079;-83
2022/10/20 08:04:30;;;;;;;20.33;13.88;;;7.80;99.90;;;;;;5025598;28;20045;-82
2022/10/20 08:06:56;;;;;;;23.40;15.15;;;7.50;99.90;;;;;;5041981;28;20396;-82
2022/10/20 08:09:22;;;;;;;19.60;14.38;;;7.90;99.90;;;;;;5046947;28;20043;-82
2022/10/20 08:11:48;;;;;;;18.63;14.80;;;8.00;99.90;;;;;;5064416;28;20040;-80
2022/10/20 08:14:13;;;;;;;25.17;14.65;;;8.00;99.90;;;;;;5029734;28;20113;-84
2022/10/20 08:16:46;;;;;;;17.83;14.38;;;8.00;99.90;;;;;;5046872;28;20036;-82
2022/10/20 08:19:12;;;;;;;18.08;14.23;;;8.10;99.90;;;;;;5029414;28;20048;-82
2022/10/20 08:21:38;;;;;;;19.65;14.30;;;8.80;99.90;;;;;;5005882;28;20056;-82
2022/10/20 08:24:04;;;;;;;19.42;13.65;;;8.10;99.90;;;;;;5048630;28;20131;-82
2022/10/20 08:26:29;;;;;;;20.42;14.02;;;8.10;99.90;;;;;;5083303;23;20042;-80
2022/10/20 08:28:55;;;;;;;19.73;14.70;;;8.20;99.90;;;;;;5026702;28;20049;-82
2022/10/20 08:31:22;;;;;;;18.48;14.35;;;8.20;99.90;;;;;;5030699;28;20379;-82
2022/10/20 08:33:47;;;;;;;18.65;14.27;;;8.30;99.90;;;;;;4994429;28;20037;-81
2022/10/20 08:36:14;;;;;;;19.00;13.73;;;8.30;99.90;;;;;;4999839;28;20037;-80
2022/10/20 08:38:40;;;;;;;19.00;16.08;;;8.40;99.90;;;;;;4982792;28;20048;-79
2022/10/20 08:41:16;;;;;;;19.70;17.17;;;8.40;99.90;;;;;;4990964;28;20077;-82
2022/10/20 08:43:42;;;;;;;18.48;15.13;;;8.50;99.90;;;;;;4992612;28;20140;-81
2022/10/20 08:46:14;;;;;;;15.65;13.63;;;8.60;99.90;;;;;;5013162;28;20076;-81
2022/10/20 08:48:40;;;;;;;18.77;12.80;;;8.70;99.90;;;;;;5014475;28;20672;-81
2022/10/20 08:51:20;;;;;;;18.65;14.95;;;8.80;99.90;;;;;;4999943;28;20033;-82
2022/10/20 08:53:48;;;;;;;18.45;13.55;;;8.90;99.90;;;;;;5007544;28;20041;-82
2022/10/20 08:56:14;;;;;;;18.88;14.40;;;9.00;99.90;;;;;;4992905;28;20047;-82
2022/10/20 08:58:46;;;;;;;16.27;13.50;;;9.10;99.90;;;;;;4972796;28;20084;-81
2022/10/20 09:01:21;;;;;;;18.08;13.63;;;9.20;99.90;;;;;;5007047;28;20046;-82
2022/10/20 09:03:53;;;;;;;20.85;13.27;;;9.70;99.90;;;;;;5005191;28;20117;-82
2022/10/20 09:06:20;;;;;;;18.40;13.07;;;9.50;99.90;;;;;;4987120;28;20498;-81
2022/10/20 09:08:47;;;;;;;14.88;11.98;;;9.40;99.90;;;;;;5005959;28;20041;-81
2022/10/20 09:11:21;;;;;;;15.90;12.20;;;9.40;99.90;;;;;;4988759;28;20461;-81
2022/10/20 09:13:47;;;;;;;17.55;13.30;;;9.70;99.90;;;;;;5011612;28;20038;-82
2022/10/20 09:16:25;;;;;;;15.02;11.48;;;9.50;99.90;;;;;;4992979;28;20041;-82
2022/10/20 09:18:59;;;;;;;13.00;11.50;;;9.60;99.90;;;;;;4995751;28;20042;-82
2022/10/20 09:21:25;;;;;;;15.93;10.82;;;9.90;99.90;;;;;;4998240;28;20050;-81
2022/10/20 09:23:55;;;;;;;16.17;11.73;;;9.70;99.90;;;;;;5010840;28;20037;-81
2022/10/20 09:26:43;;;;;;;13.55;11.02;;;9.70;99.90;;;;;;5017899;28;20060;-82
2022/10/20 09:29:18;;;;;;;17.58;11.52;;;9.90;99.90;;;;;;5028852;28;20444;-81
2022/10/20 09:31:45;;;;;;;17.65;10.95;;;9.90;99.90;;;;;;4996731;28;20088;-82
2022/10/20 09:34:31;;;;;;;13.85;10.75;;;10.00;99.90;;;;;;5002193;28;20459;-80
2022/10/20 09:37:06;;;;;;;13.63;10.07;;;10.10;99.90;;;;;;5010985;28;20125;-82
2022/10/20 09:39:38;;;;;;;14.43;11.07;;;10.10;99.90;;;;;;5008620;28;20056;-83
2022/10/20 09:42:11;;;;;;;14.80;11.45;;;10.20;99.90;;;;;;4990416;28;20038;-83
2022/10/20 09:44:58;;;;;;;13.27;10.13;;;10.30;99.90;;;;;;4991446;28;20076;-81
2022/10/20 09:47:27;;;;;;;13.20;10.75;;;10.30;99.90;;;;;;5004697;28;20042;-79
2022/10/20 09:49:59;;;;;;;17.75;10.50;;;11.30;99.90;;;;;;4991830;28;20270;-80
2022/10/20 09:52:30;;;;;;;14.35;9.82;;;10.50;99.90;;;;;;5010407;28;20041;-82
2022/10/20 09:55:01;;;;;;;13.70;10.13;;;10.60;99.90;;;;;;4987243;28;20041;-81
2022/10/20 09:57:27;;;;;;;12.15;10.32;;;10.60;99.90;;;;;;5006742;28;20041;-82
2022/10/20 09:59:55;;;;;;;13.15;9.30;;;10.70;99.90;;;;;;4992120;28;20068;-82
2022/10/20 10:02:21;;;;;;;14.18;10.27;;;11.10;99.90;;;;;;5009392;28;20049;-80
2022/10/20 10:04:48;;;;;;;13.23;9.00;;;11.00;99.90;;;;;;5004624;28;20441;-83
2022/10/20 10:07:26;;;;;;;16.98;9.55;;;11.10;99.90;;;;;;4992843;28;20117;-84
2022/10/20 10:10:00;;;;;;;12.63;9.48;;;11.20;99.90;;;;;;4995960;28;20077;-84
2022/10/20 10:12:28;;;;;;;12.20;9.55;;;11.40;99.90;;;;;;4995911;28;20052;-83
2022/10/20 10:15:00;;;;;;;12.45;9.27;;;11.50;99.90;;;;;;5012049;28;20045;-83
2022/10/20 10:17:28;;;;;;;12.13;8.98;;;11.60;99.90;;;;;;4995883;28;20124;-84
2022/10/20 10:19:54;;;;;;;12.57;9.00;;;11.70;99.90;;;;;;4998054;28;20038;-82
2022/10/20 10:22:20;;;;;;;15.65;9.10;;;11.80;99.90;;;;;;4995671;28;20125;-82
2022/10/20 10:24:48;;;;;;;12.40;9.15;;;11.90;99.90;;;;;;4964019;28;20065;-83
2022/10/20 10:27:28;;;;;;;11.75;8.20;;;12.00;99.90;;;;;;4999659;28;20052;-83
2022/10/20 10:30:15;;;;;;;10.85;9.48;;;12.10;99.90;;;;;;5013061;28;20037;-82
2022/10/20 10:32:46;;;;;;;11.15;9.43;;;12.20;99.90;;;;;;4995716;28;20469;-83
2022/10/20 10:35:32;;;;;;;10.45;8.48;;;12.20;99.90;;;;;;4993606;28;20053;-82
2022/10/20 10:37:59;;;;;;;13.18;8.70;;;12.20;99.90;;;;;;5014972;28;20049;-82
2022/10/20 10:40:35;;;;;;;11.07;8.20;;;12.70;99.90;;;;;;4991265;28;20512;-82
2022/10/20 10:43:29;;;;;;;12.10;8.52;;;12.20;99.90;;;;;;5017204;28;20124;-81
2022/10/20 10:45:58;;;;;;;;;;;12.30;99.90;;;;;;5000254;28;20124;-83
2022/10/20 10:48:44;;;;;;;10.75;7.90;;;12.30;99.90;;;;;;4984913;28;20026;-83
2022/10/20 10:51:35;;;;;;;11.50;8.35;;;12.40;99.90;;;;;;4988346;28;20243;-82
2022/10/20 10:54:25;;;;;;;15.02;8.68;;;12.50;99.90;;;;;;4988512;28;20034;-81
2022/10/20 10:56:58;;;;;;;15.50;9.05;;;12.60;99.90;;;;;;4985853;28;20727;-82
2022/10/20 10:59:35;;;;;;;10.98;8.85;;;12.70;99.90;;;;;;4988157;28;20704;-81
2022/10/20 11:02:40;;;;;;;12.57;8.73;;;12.70;99.90;;;;;;4989223;28;20030;-82
2022/10/20 11:05:18;;;;;;;14.70;9.18;;;12.70;99.90;;;;;;4985217;28;20494;-83
2022/10/20 11:08:21;;;;;;;12.90;8.63;;;12.70;99.90;;;;;;5006348;28;20039;-82
2022/10/20 11:11:00;;;;;;;12.77;9.02;;;12.70;99.90;;;;;;5008209;28;20101;-80
2022/10/20 11:13:52;;;;;;;11.18;8.80;;;12.80;99.90;;;;;;5002603;28;20057;-81
2022/10/20 11:16:32;;;;;;;15.65;9.75;;;12.90;99.90;;;;;;4972631;28;20049;-82
2022/10/20 11:19:13;;;;;;;10.10;8.45;;;13.00;99.90;;;;;;4999975;28;20045;-82
2022/10/20 11:21:48;;;;;;;11.45;9.07;;;13.00;99.90;;;;;;5005810;28;20041;-83
2022/10/20 11:24:38;;;;;;;13.55;9.25;;;13.00;99.90;;;;;;5011433;28;20066;-80
2022/10/20 11:27:14;;;;;;;12.18;9.07;;;13.00;99.90;;;;;;5018056;28;20053;-81
2022/10/20 11:29:43;;;;;;;13.10;9.80;;;13.00;99.90;;;;;;5009200;28;20129;-79
2022/10/20 11:32:54;;;;;;;10.85;9.07;;;13.00;99.90;;;;;;4998230;28;20038;-81
2022/10/20 11:35:32;;;;;;;11.35;9.00;;;13.00;99.90;;;;;;4931860;28;20069;-83
2022/10/20 11:38:12;;;;;;;11.55;9.40;;;13.00;99.90;;;;;;4942830;28;20123;-81
2022/10/20 11:40:42;;;;;;;11.05;8.82;;;13.00;99.90;;;;;;4993641;28;20054;-81
2022/10/20 11:43:34;;;;;;;12.30;9.82;;;13.00;99.90;;;;;;4991103;28;20510;-83
2022/10/20 11:46:09;;;;;;;13.05;9.43;;;13.00;99.90;;;;;;5010278;28;20433;-84
2022/10/20 11:48:52;;;;;;;13.25;9.77;;;13.00;99.90;;;;;;4997931;28;20089;-84
2022/10/20 11:51:30;;;;;;;13.73;9.57;;;13.00;99.90;;;;;;5005504;28;20506;-80
2022/10/20 11:54:27;;;;;;;14.52;8.93;;;12.90;99.90;;;;;;5020003;28;20562;-80
2022/10/20 11:56:55;;;;;;;11.65;9.38;;;13.00;99.90;;;;;;4999762;28;20097;-80
2022/10/20 11:59:43;;;;;;;12.93;9.65;;;12.90;99.90;;;;;;5003060;28;20532;-79
2022/10/20 12:02:17;;;;;;;15.85;9.50;;;12.90;99.90;;;;;;5013613;28;20196;-79
2022/10/20 12:05:21;;;;;;;11.82;8.90;;;12.90;99.90;;;;;;5017768;28;20140;-81
2022/10/20 12:08:20;;;;;;;11.95;9.75;;;12.90;99.90;;;;;;5001176;28;20125;-81
2022/10/20 12:10:59;;;;;;;13.02;9.13;;;12.90;99.90;;;;;;5017345;28;20033;-80
2022/10/20 12:13:44;;;;;;;12.00;8.73;;;12.90;99.90;;;;;;5018039;28;20528;-81
2022/10/20 12:16:09;;;;;;;14.70;9.68;;;12.90;99.90;;;;;;5014802;28;20034;-80
2022/10/20 12:18:35;;;;;;;13.57;9.68;;;12.80;99.90;;;;;;4980984;28;20042;-79
2022/10/20 12:21:07;;;;;;;12.73;8.70;;;12.80;99.90;;;;;;5013562;28;20104;-81
2022/10/20 12:23:42;;;;;;;14.68;9.35;;;12.80;99.90;;;;;;5010112;28;20116;-80
2022/10/20 12:26:31;;;;;;;12.93;9.90;;;12.80;99.90;;;;;;5011789;28;20069;-80
2022/10/20 12:29:21;;;;;;;13.00;9.82;;;12.70;99.90;;;;;;5012138;28;20050;-81
2022/10/20 12:32:24;;;;;;;16.02;10.23;;;12.70;99.90;;;;;;5015598;28;20480;-80
2022/10/20 12:35:09;;;;;;;14.60;9.98;;;12.70;99.90;;;;;;5015978;28;20112;-80
2022/10/20 12:37:36;;;;;;;12.50;10.02;;;12.70;99.90;;;;;;5002362;28;20045;-80
2022/10/20 12:40:08;;;;;;;16.10;11.45;;;12.60;99.90;;;;;;5018941;28;20390;-80
2022/10/20 12:42:44;;;;;;;14.43;10.85;;;12.60;99.90;;;;;;5014915;28;20045;-81
2022/10/20 12:45:18;;;;;;;13.82;10.95;;;12.60;99.90;;;;;;5008756;28;20046;-79
2022/10/20 12:47:51;;;;;;;11.98;10.50;;;12.50;99.90;;;;;;4995005;28;20038;-81
2022/10/20 12:50:39;;;;;;;16.65;11.57;;;12.50;99.90;;;;;;4999756;28;20065;-80
2022/10/20 12:53:18;;;;;;;14.98;10.50;;;12.50;99.90;;;;;;5016849;28;20053;-81
2022/10/20 12:55:52;;;;;;;13.70;11.43;;;12.40;99.90;;;;;;5014480;28;20048;-81
2022/10/20 12:58:18;;;;;;;16.58;12.05;;;12.80;99.90;;;;;;5010071;28;20045;-81
2022/10/20 13:00:46;;;;;;;13.60;11.10;;;12.40;99.90;;;;;;5019037;28;20093;-82